Time;durP1;ratioP1;P1;durP2;ratioP2;P2;SDS_P1;SDS_P2;PMS_P1;PMS_P2;Temp;Humidity;BMP_temperature;BMP_pressure;BME280_temperature;BME280_humidity;BME280_pressure;Samples;Min_cycle;Max_cycle;Signal;HPM_P1;HPM_P2
2022/03/19 00:00:47;;;;;;;12.95;4.03;;;4.50;99.90;;;;;;5094889;28;20028;-65
2022/03/19 00:03:12;;;;;;;15.15;3.95;;;4.50;99.90;;;;;;5077673;28;20021;-65
2022/03/19 00:05:39;;;;;;;15.75;4.05;;;4.50;99.90;;;;;;5112945;28;20024;-66
2022/03/19 00:08:05;;;;;;;16.15;3.58;;;4.40;99.90;;;;;;5084300;28;20032;-66
2022/03/19 00:10:31;;;;;;;17.48;3.70;;;4.30;99.90;;;;;;5083852;28;20074;-65
2022/03/19 00:12:58;;;;;;;15.20;4.20;;;4.30;99.90;;;;;;5083012;28;20024;-65
2022/03/19 00:15:24;;;;;;;16.73;3.83;;;4.30;99.90;;;;;;5091217;28;20024;-65
2022/03/19 00:17:52;;;;;;;17.17;4.68;;;4.30;99.90;;;;;;5077729;28;20056;-65
2022/03/19 00:20:18;;;;;;;21.95;4.53;;;4.30;99.90;;;;;;5094438;28;20034;-65
2022/03/19 00:22:44;;;;;;;19.13;4.20;;;4.30;99.90;;;;;;5090405;28;20389;-65
2022/03/19 00:25:14;;;;;;;18.65;4.18;;;4.20;99.90;;;;;;5099534;28;20386;-65
2022/03/19 00:27:40;;;;;;;15.68;4.65;;;4.20;99.90;;;;;;5092300;28;20083;-66
2022/03/19 00:30:07;;;;;;;17.45;4.45;;;4.10;99.90;;;;;;5090344;28;20059;-65
2022/03/19 00:32:33;;;;;;;13.00;4.00;;;4.10;99.90;;;;;;5090033;28;20043;-65
2022/03/19 00:34:59;;;;;;;13.85;3.75;;;4.10;99.90;;;;;;5091933;28;20024;-65
2022/03/19 00:37:25;;;;;;;14.93;4.53;;;4.00;99.90;;;;;;5092897;28;20028;-65
2022/03/19 00:39:51;;;;;;;16.08;4.85;;;4.00;99.90;;;;;;5089383;28;20033;-65
2022/03/19 00:42:17;;;;;;;14.70;4.28;;;4.00;99.90;;;;;;5089516;28;20087;-65
2022/03/19 00:44:44;;;;;;;17.92;4.13;;;4.00;99.90;;;;;;5095803;28;20023;-65
2022/03/19 00:47:10;;;;;;;13.15;4.35;;;3.90;99.90;;;;;;5087232;28;20024;-65
2022/03/19 00:49:36;;;;;;;17.25;4.78;;;3.90;99.90;;;;;;5089950;28;20024;-65
2022/03/19 00:52:02;;;;;;;17.08;5.07;;;3.90;99.90;;;;;;5090715;28;20067;-65
2022/03/19 00:54:27;;;;;;;18.70;4.70;;;3.80;99.90;;;;;;5092625;28;20046;-65
2022/03/19 00:56:53;;;;;;;15.50;4.55;;;3.80;99.90;;;;;;5094744;28;20103;-65
2022/03/19 00:59:19;;;;;;;18.55;4.18;;;3.80;99.90;;;;;;5090825;28;20028;-65
2022/03/19 01:01:44;;;;;;;19.77;5.53;;;3.80;99.90;;;;;;5090971;28;20056;-65
2022/03/19 01:04:10;;;;;;;14.73;4.53;;;3.80;99.90;;;;;;5093849;28;20048;-65
2022/03/19 01:06:36;;;;;;;20.52;5.10;;;3.80;99.90;;;;;;5088512;28;20033;-65
2022/03/19 01:09:01;;;;;;;15.80;4.40;;;3.80;99.90;;;;;;5086156;28;20032;-66
2022/03/19 01:11:28;;;;;;;15.05;4.60;;;3.80;99.90;;;;;;5089737;28;20035;-66
2022/03/19 01:13:55;;;;;;;18.90;5.72;;;3.80;99.90;;;;;;5093283;28;20493;-65
2022/03/19 01:16:21;;;;;;;16.58;4.30;;;3.80;99.90;;;;;;5089725;28;20031;-65
2022/03/19 01:18:48;;;;;;;19.42;4.65;;;3.70;99.90;;;;;;5088228;28;20486;-65
2022/03/19 01:21:15;;;;;;;15.40;4.32;;;3.70;99.90;;;;;;5097219;28;20547;-66
2022/03/19 01:23:41;;;;;;;20.70;4.93;;;3.70;99.90;;;;;;5090507;28;20020;-66
2022/03/19 01:26:07;;;;;;;17.92;4.82;;;3.70;99.90;;;;;;5089626;28;21046;-66
2022/03/19 01:28:33;;;;;;;16.75;4.65;;;3.60;99.90;;;;;;5088356;28;20020;-65
2022/03/19 01:30:58;;;;;;;16.48;4.28;;;3.60;99.90;;;;;;5095576;28;20044;-65
2022/03/19 01:33:24;;;;;;;20.05;4.68;;;3.50;99.90;;;;;;5088770;28;20040;-65
2022/03/19 01:35:50;;;;;;;19.88;5.18;;;3.50;99.90;;;;;;5091621;28;20085;-66
2022/03/19 01:38:16;;;;;;;20.40;4.85;;;3.50;99.90;;;;;;5087960;28;20089;-66
2022/03/19 01:40:41;;;;;;;14.13;4.32;;;3.60;99.90;;;;;;5087342;28;20111;-66
2022/03/19 01:43:07;;;;;;;17.70;4.63;;;3.50;99.90;;;;;;5088527;28;20029;-66
2022/03/19 01:45:33;;;;;;;17.00;4.10;;;3.50;99.90;;;;;;5093865;28;20059;-65
2022/03/19 01:47:59;;;;;;;19.88;4.68;;;3.50;99.90;;;;;;5090577;28;20063;-66
2022/03/19 01:50:26;;;;;;;19.45;4.65;;;3.50;99.90;;;;;;5088376;28;20049;-65
2022/03/19 01:52:52;;;;;;;18.20;4.72;;;3.50;99.90;;;;;;5085830;28;20161;-65
2022/03/19 01:55:20;;;;;;;15.82;4.60;;;3.50;99.90;;;;;;5099226;28;20032;-66
2022/03/19 01:57:48;;;;;;;18.23;5.00;;;3.40;99.90;;;;;;5094772;28;20358;-65
2022/03/19 02:00:19;;;;;;;20.02;5.03;;;3.40;99.90;;;;;;5091717;28;20036;-65
2022/03/19 02:02:49;;;;;;;16.42;4.95;;;3.40;99.90;;;;;;5088363;28;20013;-65
2022/03/19 02:05:17;;;;;;;15.38;4.30;;;3.40;99.90;;;;;;5094293;28;20039;-65
2022/03/19 02:07:44;;;;;;;17.40;4.68;;;3.40;99.90;;;;;;5094085;28;20040;-65
2022/03/19 02:10:10;;;;;;;18.80;4.57;;;3.50;99.90;;;;;;5090428;28;20076;-66
2022/03/19 02:12:37;;;;;;;21.80;4.93;;;3.40;99.90;;;;;;5091431;28;20047;-66
2022/03/19 02:15:04;;;;;;;14.93;4.95;;;3.50;99.90;;;;;;5095785;28;20030;-66
2022/03/19 02:17:30;;;;;;;19.77;5.10;;;3.50;99.90;;;;;;5095165;28;20046;-65
2022/03/19 02:19:57;;;;;;;20.00;5.45;;;3.40;99.90;;;;;;5089774;28;20103;-66
2022/03/19 02:22:27;;;;;;;13.45;4.32;;;3.40;99.90;;;;;;5091710;28;20047;-66
2022/03/19 02:27:39;;;;;;;19.30;4.88;;;3.30;99.90;;;;;;5086881;28;20035;-65
2022/03/19 02:30:10;;;;;;;16.75;5.10;;;3.40;99.90;;;;;;5088370;28;20421;-66
2022/03/19 02:32:39;;;;;;;20.27;5.05;;;3.30;99.90;;;;;;5087590;28;20046;-65
2022/03/19 02:35:05;;;;;;;18.83;5.03;;;3.40;99.90;;;;;;5092882;28;20073;-66
2022/03/19 02:37:38;;;;;;;19.60;5.03;;;3.40;99.90;;;;;;5089699;28;20120;-65
2022/03/19 02:40:05;;;;;;;18.17;5.13;;;3.40;99.90;;;;;;5084946;28;20028;-66
2022/03/19 02:42:30;;;;;;;18.95;5.70;;;3.50;99.90;;;;;;5093627;28;20024;-66
2022/03/19 02:44:56;;;;;;;17.77;4.85;;;3.40;99.90;;;;;;5081898;28;20238;-66
2022/03/19 02:47:22;;;;;;;17.65;5.05;;;3.30;99.90;;;;;;5089452;28;20025;-66
2022/03/19 02:49:47;;;;;;;18.85;6.10;;;3.40;99.90;;;;;;5089724;28;20036;-66
2022/03/19 02:52:13;;;;;;;16.70;4.88;;;3.40;99.90;;;;;;5086144;28;20071;-66
2022/03/19 02:54:39;;;;;;;16.85;4.45;;;3.40;99.90;;;;;;5093323;28;20032;-66
2022/03/19 02:57:04;;;;;;;17.65;5.60;;;3.40;99.90;;;;;;5088652;28;20031;-66
2022/03/19 02:59:32;;;;;;;19.67;4.60;;;3.40;99.90;;;;;;5089145;28;20056;-66
2022/03/19 03:02:00;;;;;;;14.55;4.88;;;3.30;99.90;;;;;;5089826;28;20024;-65
2022/03/19 03:04:26;;;;;;;19.13;5.13;;;3.40;99.90;;;;;;5095894;28;20050;-66
2022/03/19 03:06:54;;;;;;;17.23;4.95;;;3.40;99.90;;;;;;5089528;28;20029;-65
2022/03/19 03:09:23;;;;;;;21.02;5.18;;;3.30;99.90;;;;;;5073185;28;20036;-66
2022/03/19 03:11:50;;;;;;;17.83;4.85;;;3.30;99.90;;;;;;5093290;28;20039;-66
2022/03/19 03:14:16;;;;;;;15.48;4.80;;;3.30;99.90;;;;;;5073020;28;20142;-66
2022/03/19 03:16:42;;;;;;;17.95;5.82;;;3.30;99.90;;;;;;5093265;28;20073;-66
2022/03/19 03:19:11;;;;;;;18.30;4.85;;;3.30;99.90;;;;;;5089441;28;20037;-66
2022/03/19 03:21:39;;;;;;;16.23;5.43;;;3.30;99.90;;;;;;5104446;28;20041;-66
2022/03/19 03:24:06;;;;;;;16.92;4.70;;;3.30;99.90;;;;;;5091885;28;20024;-65
2022/03/19 03:26:32;;;;;;;18.10;5.63;;;3.20;99.90;;;;;;5089402;28;20031;-66
2022/03/19 03:28:58;;;;;;;13.30;4.53;;;3.20;99.90;;;;;;5091605;28;20375;-66
2022/03/19 03:31:25;;;;;;;15.75;5.57;;;3.20;99.90;;;;;;5086510;28;20513;-66
2022/03/19 03:33:52;;;;;;;22.83;5.53;;;3.30;99.90;;;;;;5092364;28;20325;-66
2022/03/19 03:36:18;;;;;;;15.38;5.40;;;3.20;99.90;;;;;;5091846;28;20040;-66
2022/03/19 03:38:43;;;;;;;16.80;5.93;;;3.20;99.90;;;;;;5088413;28;20024;-66
2022/03/19 03:41:09;;;;;;;15.93;5.15;;;3.20;99.90;;;;;;5087412;28;20394;-66
2022/03/19 03:43:35;;;;;;;30.02;6.13;;;3.20;99.90;;;;;;5088883;28;20035;-66
2022/03/19 03:46:02;;;;;;;16.58;5.57;;;3.10;99.90;;;;;;5089103;28;20470;-66
2022/03/19 03:48:28;;;;;;;14.88;4.85;;;3.10;99.90;;;;;;5084472;28;20012;-66
2022/03/19 03:50:56;;;;;;;13.07;4.88;;;3.10;99.90;;;;;;5090999;28;20104;-66
2022/03/19 03:53:26;;;;;;;16.92;5.50;;;3.00;99.90;;;;;;5086785;28;20052;-66
2022/03/19 03:55:52;;;;;;;19.00;5.43;;;3.00;99.90;;;;;;5089399;28;20488;-66
2022/03/19 03:58:18;;;;;;;19.33;5.75;;;3.00;99.90;;;;;;5090511;28;20029;-66
2022/03/19 04:00:44;;;;;;;20.20;6.32;;;2.90;99.90;;;;;;5083865;28;20063;-66
2022/03/19 04:03:11;;;;;;;19.42;5.97;;;3.00;99.90;;;;;;5088556;28;20024;-66
2022/03/19 04:05:37;;;;;;;14.45;5.72;;;2.90;99.90;;;;;;5087917;28;20031;-66
2022/03/19 04:08:03;;;;;;;19.42;6.20;;;2.90;99.90;;;;;;5084687;28;20028;-66
2022/03/19 04:10:31;;;;;;;18.42;5.82;;;3.00;99.90;;;;;;5083696;28;20029;-66
2022/03/19 04:13:00;;;;;;;14.90;5.75;;;2.90;99.90;;;;;;5084678;28;20031;-66
2022/03/19 04:15:26;;;;;;;19.08;5.45;;;3.00;99.90;;;;;;5086310;28;20024;-66
2022/03/19 04:17:51;;;;;;;27.10;6.05;;;3.00;99.90;;;;;;5084313;28;20043;-66
2022/03/19 04:20:17;;;;;;;16.10;6.30;;;3.00;99.90;;;;;;5084965;28;20028;-66
2022/03/19 04:22:46;;;;;;;17.92;6.35;;;3.00;99.90;;;;;;5094056;28;20056;-66
2022/03/19 04:25:24;;;;;;;16.95;5.47;;;3.10;99.90;;;;;;5084955;28;20127;-66
2022/03/19 04:27:52;;;;;;;19.20;6.47;;;3.10;99.90;;;;;;5087492;28;20482;-66
2022/03/19 04:30:19;;;;;;;21.52;6.60;;;3.10;99.90;;;;;;5083978;28;20370;-66
2022/03/19 04:32:54;;;;;;;20.45;6.10;;;3.10;99.90;;;;;;5086371;28;20050;-66
2022/03/19 04:38:07;;;;;;;21.75;5.75;;;3.10;99.90;;;;;;5089906;28;20223;-66
2022/03/19 04:40:34;;;;;;;17.13;6.13;;;3.10;99.90;;;;;;5086497;28;20017;-66
2022/03/19 04:43:00;;;;;;;19.13;5.60;;;3.10;99.90;;;;;;5088870;28;20032;-66
2022/03/19 04:45:26;;;;;;;17.85;6.10;;;3.10;99.90;;;;;;5088097;28;20128;-66
2022/03/19 04:47:53;;;;;;;17.05;6.20;;;3.10;99.90;;;;;;5080505;28;20028;-66
2022/03/19 04:50:19;;;;;;;17.58;6.05;;;3.10;99.90;;;;;;5078059;28;20027;-66
2022/03/19 04:52:45;;;;;;;17.70;6.43;;;3.00;99.90;;;;;;5094961;28;20036;-66
2022/03/19 04:55:12;;;;;;;15.70;5.50;;;3.00;99.90;;;;;;5090353;28;20029;-66
2022/03/19 04:57:39;;;;;;;19.73;6.22;;;3.00;99.90;;;;;;5077442;28;20029;-66
2022/03/19 05:00:07;;;;;;;20.65;6.97;;;3.00;99.90;;;;;;5090025;28;20076;-66
2022/03/19 05:02:33;;;;;;;21.38;7.15;;;3.10;99.90;;;;;;5088287;28;20032;-66
2022/03/19 05:04:59;;;;;;;18.33;6.65;;;3.10;99.90;;;;;;5094801;28;20073;-66
2022/03/19 05:07:27;;;;;;;23.00;6.30;;;3.10;99.90;;;;;;5094756;28;20035;-66
2022/03/19 05:12:43;;;;;;;19.98;5.78;;;3.10;99.90;;;;;;5092332;28;20047;-66
2022/03/19 05:15:14;;;;;;;16.23;6.35;;;3.00;99.90;;;;;;5091324;28;20032;-66
2022/03/19 05:17:40;;;;;;;18.10;6.77;;;3.00;99.90;;;;;;5089295;28;20025;-66
2022/03/19 05:20:07;;;;;;;19.40;6.25;;;3.00;99.90;;;;;;5090459;28;20035;-66
2022/03/19 05:22:33;;;;;;;15.50;5.72;;;3.00;99.90;;;;;;5091074;28;20088;-67
2022/03/19 05:24:59;;;;;;;17.08;5.60;;;3.00;99.90;;;;;;5097423;28;20024;-67
2022/03/19 05:27:25;;;;;;;24.65;6.30;;;3.00;99.90;;;;;;5091595;28;20031;-67
2022/03/19 05:29:51;;;;;;;17.42;5.32;;;3.00;99.90;;;;;;5087333;28;20028;-66
2022/03/19 05:32:18;;;;;;;16.05;6.00;;;2.90;99.90;;;;;;5087886;28;20043;-67
2022/03/19 05:34:44;;;;;;;17.88;5.97;;;2.90;99.90;;;;;;5088625;28;20123;-67
2022/03/19 05:37:09;;;;;;;21.35;6.85;;;2.90;99.90;;;;;;5100541;28;20043;-67
2022/03/19 05:39:36;;;;;;;19.38;7.53;;;2.90;99.90;;;;;;5087616;28;20021;-67
2022/03/19 05:42:03;;;;;;;26.15;7.30;;;3.00;99.90;;;;;;5087194;28;20021;-66
2022/03/19 05:44:29;;;;;;;15.75;5.53;;;3.00;99.90;;;;;;5087470;28;20020;-67
2022/03/19 05:46:58;;;;;;;18.42;6.43;;;3.00;99.90;;;;;;5088878;28;20028;-67
2022/03/19 05:49:24;;;;;;;16.38;6.22;;;3.00;99.90;;;;;;5092439;28;20033;-67
2022/03/19 05:51:49;;;;;;;22.20;6.82;;;3.00;99.90;;;;;;5081793;28;20051;-66
2022/03/19 05:54:15;;;;;;;15.32;6.35;;;3.00;99.90;;;;;;5078568;28;20031;-66
2022/03/19 05:56:41;;;;;;;21.80;5.75;;;3.00;99.90;;;;;;5091982;28;20072;-66
2022/03/19 05:59:06;;;;;;;18.67;6.47;;;3.00;99.90;;;;;;5085846;28;20020;-67
2022/03/19 06:01:32;;;;;;;18.50;6.75;;;3.00;99.90;;;;;;5096554;28;20054;-67
2022/03/19 06:03:59;;;;;;;19.45;6.10;;;3.10;99.90;;;;;;5090939;28;20036;-67
2022/03/19 06:06:28;;;;;;;20.77;7.22;;;3.10;99.90;;;;;;5096437;28;20079;-66
2022/03/19 06:08:55;;;;;;;16.83;6.57;;;3.20;99.90;;;;;;5111403;28;20043;-66
2022/03/19 06:11:21;;;;;;;18.73;6.15;;;3.20;99.90;;;;;;5091721;28;20040;-65
2022/03/19 06:13:47;;;;;;;18.33;6.03;;;3.10;99.90;;;;;;5091869;28;20027;-66
2022/03/19 06:16:13;;;;;;;16.92;6.85;;;3.20;99.90;;;;;;5098059;28;20055;-65
2022/03/19 06:18:39;;;;;;;22.00;6.60;;;3.30;99.90;;;;;;5090394;28;20024;-65
2022/03/19 06:21:06;;;;;;;19.13;6.82;;;3.30;99.90;;;;;;5088785;28;20062;-66
2022/03/19 06:23:32;;;;;;;20.17;6.68;;;3.30;99.90;;;;;;5090372;28;20032;-66
2022/03/19 06:25:57;;;;;;;16.95;5.80;;;3.30;99.90;;;;;;5086822;28;20020;-66
2022/03/19 06:28:23;;;;;;;18.40;6.53;;;3.40;99.90;;;;;;5089237;28;20032;-66
2022/03/19 06:30:49;;;;;;;19.70;6.10;;;3.40;99.90;;;;;;5091105;28;20044;-66
2022/03/19 06:33:15;;;;;;;18.88;6.75;;;3.50;99.90;;;;;;5077411;28;20036;-66
2022/03/19 06:38:28;;;;;;;21.00;6.63;;;3.60;99.90;;;;;;5090780;28;20084;-66
2022/03/19 06:40:54;;;;;;;18.58;6.93;;;3.70;99.90;;;;;;5091408;28;20431;-66
2022/03/19 06:43:20;;;;;;;19.40;6.45;;;3.80;99.90;;;;;;5081255;28;20028;-66
2022/03/19 06:45:46;;;;;;;21.05;6.50;;;3.90;99.90;;;;;;5092069;28;20032;-66
2022/03/19 06:48:12;;;;;;;20.52;6.13;;;4.10;99.90;;;;;;5087065;28;20031;-66
2022/03/19 06:50:37;;;;;;;18.52;6.60;;;4.20;99.90;;;;;;5088448;28;20021;-65
2022/03/19 06:53:04;;;;;;;18.02;6.78;;;4.30;99.90;;;;;;5106536;27;20174;-66
2022/03/19 06:55:30;;;;;;;17.58;5.95;;;4.30;99.90;;;;;;5090559;28;20099;-65
2022/03/19 06:57:59;;;;;;;16.83;6.10;;;4.40;99.90;;;;;;5088172;28;20029;-65
2022/03/19 07:00:25;;;;;;;19.08;6.32;;;4.40;99.90;;;;;;5084954;28;20051;-66
2022/03/19 07:02:52;;;;;;;18.20;6.65;;;4.40;99.90;;;;;;5088726;28;20024;-66
2022/03/19 07:05:23;;;;;;;16.45;5.70;;;4.50;99.90;;;;;;5091248;28;20032;-65
2022/03/19 07:07:53;;;;;;;19.40;6.43;;;4.60;99.90;;;;;;5091411;28;20437;-66
2022/03/19 07:10:19;;;;;;;24.52;6.22;;;4.70;99.90;;;;;;5086386;28;20048;-81
2022/03/19 07:12:46;;;;;;;20.70;6.25;;;4.70;99.90;;;;;;5079662;28;20085;-80
2022/03/19 07:15:17;;;;;;;17.38;7.32;;;4.80;99.90;;;;;;5057490;28;20046;-66
2022/03/19 07:17:44;;;;;;;15.93;5.70;;;4.90;99.90;;;;;;5091886;28;20135;-69
2022/03/19 07:20:11;;;;;;;21.92;6.32;;;5.00;99.90;;;;;;5090845;28;20400;-67
2022/03/19 07:22:49;;;;;;;21.60;7.70;;;5.10;99.90;;;;;;5083888;28;20052;-68
2022/03/19 07:25:16;;;;;;;16.52;7.82;;;5.20;99.90;;;;;;5089058;28;20123;-68
2022/03/19 07:27:42;;;;;;;19.67;6.30;;;5.30;99.90;;;;;;5088746;28;20024;-68
2022/03/19 07:30:09;;;;;;;22.98;6.90;;;5.40;99.90;;;;;;5092279;28;20024;-68
2022/03/19 07:32:34;;;;;;;18.20;6.82;;;5.40;99.90;;;;;;5091704;28;20041;-67
2022/03/19 07:35:00;;;;;;;16.60;7.13;;;5.40;99.90;;;;;;5093748;28;20031;-67
2022/03/19 07:37:28;;;;;;;18.95;6.78;;;5.50;99.90;;;;;;5091548;28;20180;-67
2022/03/19 07:39:57;;;;;;;21.80;7.13;;;5.70;99.90;;;;;;5096023;28;20024;-67
2022/03/19 07:42:23;;;;;;;18.85;6.43;;;5.70;99.90;;;;;;5091322;28;20051;-67
2022/03/19 07:44:49;;;;;;;18.13;6.07;;;5.80;99.90;;;;;;5087226;28;20054;-67
2022/03/19 07:47:15;;;;;;;18.42;7.25;;;5.90;99.90;;;;;;5093358;28;20031;-67
2022/03/19 07:49:41;;;;;;;21.13;6.55;;;6.20;99.90;;;;;;5085565;28;20032;-67
2022/03/19 07:52:08;;;;;;;21.55;6.60;;;7.50;99.90;;;;;;5085821;28;20096;-67
2022/03/19 07:54:36;;;;;;;18.02;6.28;;;8.70;99.90;;;;;;5088279;28;20085;-87
2022/03/19 07:57:06;;;;;;;17.67;5.88;;;9.90;99.90;;;;;;5095847;28;20020;-78
2022/03/19 07:59:33;;;;;;;21.42;5.80;;;10.90;99.90;;;;;;5089225;28;20021;-75
2022/03/19 08:01:59;;;;;;;11.63;5.00;;;11.70;99.90;;;;;;5088640;28;20047;-70
2022/03/19 08:04:25;;;;;;;13.57;4.88;;;11.80;99.90;;;;;;5089262;28;20035;-69
2022/03/19 08:06:55;;;;;;;15.98;4.88;;;12.50;99.90;;;;;;5082120;28;20024;-69
2022/03/19 08:09:23;;;;;;;17.35;5.50;;;13.00;98.00;;;;;;5082755;28;20017;-69
2022/03/19 08:11:49;;;;;;;15.95;4.97;;;13.00;94.90;;;;;;5096551;28;20054;-69
2022/03/19 08:14:16;;;;;;;14.43;4.78;;;13.40;93.50;;;;;;5099637;28;20048;-69
2022/03/19 08:16:42;;;;;;;16.23;5.35;;;13.50;92.90;;;;;;5102775;28;20504;-70
2022/03/19 08:19:11;;;;;;;15.45;5.10;;;14.20;89.20;;;;;;5101013;28;20076;-69
2022/03/19 08:21:37;;;;;;;14.27;4.70;;;14.60;78.60;;;;;;5092970;28;20048;-69
2022/03/19 08:24:03;;;;;;;14.82;4.70;;;14.00;67.90;;;;;;5081419;28;20036;-70
2022/03/19 08:26:28;;;;;;;15.45;4.75;;;15.20;73.10;;;;;;5097265;28;20056;-69
2022/03/19 08:28:54;;;;;;;17.48;4.82;;;15.80;71.30;;;;;;5082106;28;20104;-69
2022/03/19 08:31:20;;;;;;;13.93;4.43;;;15.60;61.60;;;;;;5097757;28;20512;-69
2022/03/19 08:33:45;;;;;;;15.35;4.63;;;16.00;59.80;;;;;;5102663;28;20020;-70
2022/03/19 08:36:11;;;;;;;15.40;5.10;;;16.30;57.00;;;;;;5099543;28;20069;-69
2022/03/19 08:41:21;;;;;;;16.13;4.88;;;17.00;55.00;;;;;;5104768;28;20079;-69
2022/03/19 08:43:47;;;;;;;13.52;4.43;;;16.90;54.20;;;;;;5101380;28;20024;-70
2022/03/19 08:46:12;;;;;;;11.95;3.97;;;17.10;54.30;;;;;;5104976;28;20024;-69
2022/03/19 08:48:38;;;;;;;11.60;3.75;;;17.60;53.40;;;;;;5103168;28;20032;-69
2022/03/19 08:53:49;;;;;;;16.00;3.95;;;17.10;49.90;;;;;;5091662;28;20094;-69
2022/03/19 08:56:14;;;;;;;13.85;3.85;;;16.70;49.40;;;;;;5100986;28;20024;-69
2022/03/19 08:58:40;;;;;;;14.77;3.58;;;17.10;52.50;;;;;;5094597;28;20020;-72
2022/03/19 09:01:06;;;;;;;14.02;3.78;;;17.90;51.20;;;;;;5080399;28;20055;-71
2022/03/19 09:03:33;;;;;;;13.77;3.65;;;18.20;48.10;;;;;;5094361;28;20078;-79
2022/03/19 09:05:59;;;;;;;14.35;3.47;;;16.90;46.90;;;;;;5094724;28;20024;-66
2022/03/19 09:08:26;;;;;;;14.32;3.42;;;17.70;48.30;;;;;;5086753;28;20103;-71
2022/03/19 09:10:52;;;;;;;11.52;3.45;;;17.30;48.20;;;;;;5089697;28;20020;-68
2022/03/19 09:13:18;;;;;;;13.75;3.67;;;18.20;47.30;;;;;;5096044;28;20165;-66
2022/03/19 09:15:44;;;;;;;15.25;4.00;;;18.20;46.30;;;;;;5101629;28;20448;-66
2022/03/19 09:18:09;;;;;;;14.90;3.50;;;18.10;44.60;;;;;;5100793;28;20040;-66
2022/03/19 09:20:38;;;;;;;15.32;3.58;;;17.50;45.00;;;;;;5098318;28;20052;-67
2022/03/19 09:23:03;;;;;;;11.18;3.17;;;18.50;44.90;;;;;;5099968;28;20040;-67
2022/03/19 09:25:29;;;;;;;11.68;3.53;;;17.60;45.80;;;;;;5078127;28;20078;-66
2022/03/19 09:27:55;;;;;;;11.90;3.47;;;17.10;49.50;;;;;;5079336;28;20028;-67
2022/03/19 09:30:21;;;;;;;10.90;2.58;;;15.70;46.90;;;;;;5099923;28;20032;-67
2022/03/19 09:32:46;;;;;;;12.90;3.13;;;15.30;50.00;;;;;;5093917;28;20049;-66
2022/03/19 09:35:12;;;;;;;14.38;3.63;;;15.10;52.20;;;;;;5090131;28;20040;-66
2022/03/19 09:37:38;;;;;;;15.48;3.08;;;14.10;50.10;;;;;;5091888;28;20044;-66
2022/03/19 09:40:04;;;;;;;10.20;2.88;;;13.90;50.10;;;;;;5090992;28;20712;-67
2022/03/19 09:42:32;;;;;;;13.77;3.38;;;13.80;52.50;;;;;;5108418;28;20032;-66
2022/03/19 09:44:58;;;;;;;12.43;3.10;;;13.00;53.50;;;;;;5103292;28;20043;-66
2022/03/19 09:47:26;;;;;;;11.55;3.40;;;13.00;54.20;;;;;;5102453;28;20033;-66
2022/03/19 09:49:52;;;;;;;12.18;3.33;;;13.30;56.90;;;;;;5097398;28;20480;-66
2022/03/19 09:52:20;;;;;;;16.30;3.72;;;13.20;55.50;;;;;;5089653;28;20043;-67
2022/03/19 09:54:46;;;;;;;12.43;3.75;;;13.70;61.00;;;;;;5090447;28;20032;-66
2022/03/19 09:57:12;;;;;;;16.05;3.70;;;14.20;54.40;;;;;;5088287;28;20024;-67
2022/03/19 09:59:38;;;;;;;13.25;3.70;;;15.20;54.40;;;;;;5095691;28;20108;-66
2022/03/19 10:02:10;;;;;;;10.90;3.25;;;15.70;48.90;;;;;;5091076;28;20067;-67
2022/03/19 10:04:40;;;;;;;14.93;3.50;;;17.20;49.00;;;;;;5097107;28;20025;-72
2022/03/19 10:09:50;;;;;;;11.55;3.47;;;18.60;44.20;;;;;;5103139;28;20062;-67
2022/03/19 10:12:21;;;;;;;12.38;3.58;;;18.60;41.50;;;;;;5089162;28;20040;-67
2022/03/19 10:14:53;;;;;;;12.48;3.58;;;18.70;42.00;;;;;;5098033;28;20044;-67
2022/03/19 10:17:35;;;;;;;12.13;3.30;;;19.10;40.50;;;;;;5100515;28;20016;-66
2022/03/19 10:20:09;;;;;;;12.10;2.97;;;19.00;39.30;;;;;;5095457;28;20024;-66
2022/03/19 10:22:39;;;;;;;14.90;3.30;;;19.90;40.00;;;;;;5089949;28;20087;-66
2022/03/19 10:25:10;;;;;;;10.70;3.13;;;20.00;40.40;;;;;;5101463;28;20032;-66
2022/03/19 10:27:43;;;;;;;11.68;3.40;;;20.50;38.10;;;;;;5095755;28;20100;-64
2022/03/19 10:30:10;;;;;;;11.23;3.20;;;19.60;37.90;;;;;;5100507;28;20024;-64
2022/03/19 10:32:39;;;;;;;10.55;3.25;;;20.60;39.60;;;;;;5097013;28;20055;-64
2022/03/19 10:35:05;;;;;;;11.52;3.00;;;20.80;37.60;;;;;;5092354;28;20108;-64
2022/03/19 10:37:36;;;;;;;10.95;2.85;;;20.40;39.20;;;;;;5096380;28;20489;-64
2022/03/19 10:40:03;;;;;;;8.18;2.47;;;21.60;36.90;;;;;;5089989;28;20099;-68
2022/03/19 10:42:39;;;;;;;10.27;2.70;;;19.90;35.10;;;;;;5088778;28;20110;-68
2022/03/19 10:45:10;;;;;;;9.15;2.75;;;19.80;36.30;;;;;;5094222;28;20056;-64
2022/03/19 10:47:43;;;;;;;11.80;2.50;;;20.10;36.30;;;;;;5102504;28;20078;-64
2022/03/19 10:50:10;;;;;;;9.25;2.65;;;20.10;38.20;;;;;;5103710;28;20093;-64
2022/03/19 10:52:37;;;;;;;9.30;2.50;;;20.40;35.60;;;;;;5102593;28;20040;-64
2022/03/19 10:55:04;;;;;;;10.27;2.30;;;20.30;34.90;;;;;;5097440;28;20078;-64
2022/03/19 10:57:31;;;;;;;10.27;2.60;;;20.70;33.80;;;;;;5064045;28;20114;-64
2022/03/19 10:59:56;;;;;;;9.30;2.78;;;19.80;33.10;;;;;;5098285;28;20016;-64
2022/03/19 11:02:27;;;;;;;10.57;2.45;;;19.90;33.90;;;;;;5082114;28;20025;-65
2022/03/19 11:04:53;;;;;;;12.32;3.00;;;19.90;37.40;;;;;;5083151;28;20026;-65
2022/03/19 11:07:22;;;;;;;11.32;3.28;;;20.80;35.10;;;;;;5102445;28;20390;-64
2022/03/19 11:09:51;;;;;;;8.68;2.85;;;21.30;34.20;;;;;;5100967;28;20386;-65
2022/03/19 11:12:21;;;;;;;9.52;2.83;;;21.70;34.00;;;;;;5100639;28;20119;-65
2022/03/19 11:14:51;;;;;;;11.27;2.28;;;22.10;33.10;;;;;;5079914;28;20518;-64
2022/03/19 11:17:32;;;;;;;8.85;2.00;;;21.00;31.50;;;;;;5092607;28;20346;-65
2022/03/19 11:20:02;;;;;;;8.75;1.92;;;20.80;32.10;;;;;;5082688;28;20024;-65
2022/03/19 11:22:42;;;;;;;7.47;2.20;;;20.80;32.10;;;;;;5081489;28;20040;-65
2022/03/19 11:25:26;;;;;;;9.38;2.17;;;20.30;32.10;;;;;;5083281;28;20032;-64
2022/03/19 11:27:56;;;;;;;7.82;2.28;;;19.80;33.40;;;;;;5099721;28;20043;-64
2022/03/19 11:30:30;;;;;;;9.35;2.40;;;20.60;33.00;;;;;;5091406;28;20080;-65
2022/03/19 11:33:00;;;;;;;10.90;2.50;;;21.10;33.20;;;;;;5082586;28;20417;-65
2022/03/19 11:35:27;;;;;;;14.90;2.42;;;20.50;33.20;;;;;;5080167;28;20039;-65
2022/03/19 11:38:15;;;;;;;8.10;2.00;;;20.80;32.20;;;;;;5096468;28;20028;-64
2022/03/19 11:40:54;;;;;;;8.48;2.00;;;21.30;33.20;;;;;;5101613;28;20474;-64
2022/03/19 11:43:32;;;;;;;6.95;1.75;;;21.00;32.70;;;;;;5101021;28;20493;-65
2022/03/19 11:46:11;;;;;;;7.15;2.03;;;21.40;32.90;;;;;;5102595;28;20023;-65
2022/03/19 11:48:46;;;;;;;8.43;2.08;;;20.20;30.70;;;;;;5096402;28;20362;-65
2022/03/19 11:51:35;;;;;;;5.93;1.60;;;20.30;30.90;;;;;;5103102;28;20036;-65
2022/03/19 11:54:20;;;;;;;8.80;2.13;;;20.80;30.70;;;;;;5102094;28;20037;-65
2022/03/19 11:56:47;;;;;;;7.65;1.67;;;19.60;30.70;;;;;;5101714;28;20250;-65
2022/03/19 11:59:31;;;;;;;8.77;1.70;;;20.30;33.10;;;;;;5083550;28;20090;-65
2022/03/19 12:02:00;;;;;;;9.18;1.80;;;20.70;30.70;;;;;;5079867;28;20036;-65
2022/03/19 12:04:45;;;;;;;6.07;1.88;;;21.10;31.50;;;;;;5096380;28;20024;-65
2022/03/19 12:07:12;;;;;;;5.40;1.73;;;21.70;30.90;;;;;;5103109;28;20043;-65
2022/03/19 12:09:41;;;;;;;7.57;1.90;;;20.80;30.20;;;;;;5102998;28;20024;-65
2022/03/19 12:12:11;;;;;;;6.90;2.22;;;20.90;31.30;;;;;;5106166;28;20066;-65
2022/03/19 12:14:37;;;;;;;7.22;1.83;;;21.80;31.60;;;;;;5105625;28;20065;-65
2022/03/19 12:17:27;;;;;;;9.52;2.20;;;21.70;30.70;;;;;;5106892;28;20028;-64
2022/03/19 12:19:55;;;;;;;7.72;1.73;;;21.10;30.70;;;;;;5092765;28;20023;-65
2022/03/19 12:22:39;;;;;;;6.25;1.50;;;20.40;28.50;;;;;;5085253;28;20041;-65
2022/03/19 12:25:13;;;;;;;6.22;1.73;;;21.50;28.90;;;;;;5089099;28;20020;-65
2022/03/19 12:27:40;;;;;;;8.10;1.50;;;20.80;29.50;;;;;;5085256;28;20062;-65
2022/03/19 12:30:07;;;;;;;6.28;1.58;;;20.80;30.90;;;;;;5089039;28;20048;-66
2022/03/19 12:32:54;;;;;;;7.18;1.80;;;21.40;30.90;;;;;;5084994;28;20506;-65
2022/03/19 12:35:22;;;;;;;8.30;1.63;;;20.70;29.50;;;;;;5100407;28;20119;-65
2022/03/19 12:37:49;;;;;;;9.00;1.60;;;20.70;30.00;;;;;;5099539;28;20027;-65
2022/03/19 12:40:20;;;;;;;6.15;1.63;;;20.70;29.20;;;;;;5084603;28;20052;-65
2022/03/19 12:42:57;;;;;;;6.93;1.50;;;21.90;30.00;;;;;;5085925;28;20029;-66
2022/03/19 12:45:37;;;;;;;7.97;1.50;;;20.90;28.30;;;;;;5086787;28;20116;-65
2022/03/19 12:48:11;;;;;;;7.40;1.80;;;20.70;28.20;;;;;;5105041;28;20032;-65
2022/03/19 12:50:38;;;;;;;6.32;1.50;;;20.80;28.70;;;;;;5106617;28;20024;-66
2022/03/19 12:53:04;;;;;;;5.50;1.60;;;19.40;29.70;;;;;;5104327;28;20095;-65
2022/03/19 12:55:30;;;;;;;5.28;1.52;;;20.00;29.80;;;;;;5091610;28;20084;-65
2022/03/19 12:58:01;;;;;;;6.13;1.63;;;20.50;29.90;;;;;;5084248;28;20046;-65
2022/03/19 13:00:27;;;;;;;8.00;2.00;;;19.70;29.10;;;;;;5085624;28;20047;-65
2022/03/19 13:02:54;;;;;;;7.68;1.70;;;20.60;29.60;;;;;;5085246;28;20032;-65
2022/03/19 13:05:21;;;;;;;6.15;1.70;;;20.50;29.30;;;;;;5086240;28;20404;-65
2022/03/19 13:08:07;;;;;;;5.35;1.50;;;20.20;29.40;;;;;;5106380;28;20069;-65